createdAt,value
2019-05-23T00:01:48.875Z,99.90
2019-05-23T00:04:35.753Z,99.90
2019-05-23T00:07:06.732Z,99.90
2019-05-23T00:09:35.729Z,99.90
2019-05-23T00:12:06.609Z,99.90
2019-05-23T00:14:40.039Z,99.90
2019-05-23T00:17:12.384Z,99.90
2019-05-23T00:19:42.384Z,99.90
2019-05-23T00:22:11.866Z,99.90
2019-05-23T00:24:42.653Z,99.90
2019-05-23T00:27:13.359Z,99.90
2019-05-23T00:29:44.726Z,99.90
2019-05-23T00:32:19.598Z,99.90
2019-05-23T00:34:51.621Z,99.90
2019-05-23T00:37:23.117Z,99.90
2019-05-23T00:39:53.532Z,99.90
2019-05-23T00:42:22.801Z,99.90
2019-05-23T00:44:52.401Z,99.90
2019-05-23T00:47:21.511Z,99.90
2019-05-23T00:49:51.182Z,99.90
2019-05-23T00:52:20.621Z,99.90
2019-05-23T00:54:50.216Z,99.90
2019-05-23T00:57:20.369Z,99.90
2019-05-23T00:59:50.080Z,99.90
2019-05-23T01:02:20.418Z,99.90
2019-05-23T01:04:50.807Z,99.90
2019-05-23T01:07:20.961Z,99.90
2019-05-23T01:09:50.749Z,99.90
2019-05-23T01:12:21.362Z,99.90
2019-05-23T01:14:52.105Z,99.90
2019-05-23T01:17:22.148Z,99.90
2019-05-23T01:19:52.539Z,99.90
2019-05-23T01:22:21.762Z,99.90
2019-05-23T01:24:52.570Z,99.90
2019-05-23T01:27:22.454Z,99.90
2019-05-23T01:29:52.815Z,99.90
2019-05-23T01:32:26.202Z,99.90
2019-05-23T01:34:56.845Z,99.90
2019-05-23T01:37:26.362Z,99.90
2019-05-23T01:39:56.076Z,99.90
2019-05-23T01:42:26.613Z,99.90
2019-05-23T01:44:56.121Z,99.90
2019-05-23T01:47:25.392Z,99.90
2019-05-23T01:49:55.002Z,99.90
2019-05-23T01:52:23.974Z,99.90
2019-05-23T01:54:53.482Z,99.90
2019-05-23T01:57:24.217Z,99.90
2019-05-23T02:00:08.330Z,99.90
2019-05-23T02:02:24.451Z,99.90
2019-05-23T02:04:53.368Z,99.90
2019-05-23T02:07:22.667Z,99.90
2019-05-23T02:09:52.570Z,99.90
2019-05-23T02:12:22.250Z,99.90
2019-05-23T02:14:52.220Z,99.90
2019-05-23T02:17:21.715Z,99.90
2019-05-23T02:19:50.759Z,99.90
2019-05-23T02:22:20.533Z,99.90
2019-05-23T02:24:49.788Z,99.90
2019-05-23T02:27:20.714Z,99.90
2019-05-23T02:29:49.569Z,99.90
2019-05-23T02:32:18.594Z,99.90
2019-05-23T02:34:48.210Z,99.90
2019-05-23T02:37:35.467Z,99.90
2019-05-23T02:40:09.548Z,99.90
2019-05-23T02:42:40.392Z,99.90
2019-05-23T02:45:11.862Z,99.90
2019-05-23T02:47:43.004Z,99.90
2019-05-23T02:50:16.368Z,99.90
2019-05-23T02:52:48.569Z,99.90
2019-05-23T02:55:29.718Z,99.90
2019-05-23T02:58:02.606Z,99.90
2019-05-23T03:00:54.203Z,99.90
2019-05-23T03:03:19.290Z,99.90
2019-05-23T03:05:50.185Z,99.90
2019-05-23T03:08:20.120Z,99.90
2019-05-23T03:11:08.627Z,99.90
2019-05-23T03:13:38.562Z,99.90
2019-05-23T03:16:09.471Z,99.90
2019-05-23T03:18:42.793Z,99.90
2019-05-23T03:21:13.283Z,99.90
2019-05-23T03:23:43.522Z,99.90
2019-05-23T03:26:33.858Z,99.90
2019-05-23T03:29:05.015Z,99.90
2019-05-23T03:31:53.410Z,99.90
2019-05-23T03:34:24.057Z,99.90
2019-05-23T03:36:53.222Z,99.90
2019-05-23T03:39:22.768Z,99.90
2019-05-23T03:41:51.996Z,99.90
2019-05-23T03:44:20.898Z,99.90
2019-05-23T03:46:51.610Z,99.90
2019-05-23T03:49:21.413Z,99.90
2019-05-23T03:51:51.291Z,99.90
2019-05-23T03:54:21.097Z,99.90
2019-05-23T03:56:50.353Z,99.90
2019-05-23T03:59:20.205Z,99.90
2019-05-23T04:01:51.952Z,99.90
2019-05-23T04:04:20.861Z,99.90
2019-05-23T04:06:50.194Z,99.90
2019-05-23T04:09:19.449Z,99.90
2019-05-23T04:11:48.580Z,99.90
2019-05-23T04:14:17.952Z,99.90
2019-05-23T04:16:47.414Z,99.90
2019-05-23T04:19:16.746Z,99.90
2019-05-23T04:21:45.835Z,99.90
2019-05-23T04:24:14.657Z,99.90
2019-05-23T04:26:43.927Z,99.90
2019-05-23T04:29:12.954Z,99.90
2019-05-23T04:31:42.269Z,99.90
2019-05-23T04:34:11.320Z,99.90
2019-05-23T04:36:40.935Z,99.90
2019-05-23T04:39:11.046Z,99.90
2019-05-23T04:41:40.571Z,99.90
2019-05-23T04:44:10.152Z,99.90
2019-05-23T04:46:39.609Z,99.90
2019-05-23T04:49:09.596Z,99.90
2019-05-23T04:51:38.767Z,99.90
2019-05-23T04:54:08.622Z,99.90
2019-05-23T04:56:37.513Z,99.90
2019-05-23T04:59:07.390Z,99.90
2019-05-23T05:01:37.608Z,99.90
2019-05-23T05:04:06.894Z,99.90
2019-05-23T05:06:36.083Z,99.90
2019-05-23T05:09:08.192Z,99.90
2019-05-23T05:11:37.387Z,99.90
2019-05-23T05:14:06.872Z,99.90
2019-05-23T05:16:36.196Z,99.90
2019-05-23T05:19:05.343Z,99.90
2019-05-23T05:21:34.422Z,99.90
2019-05-23T05:24:03.690Z,99.90
2019-05-23T05:26:33.171Z,99.90
2019-05-23T05:29:02.878Z,99.90
2019-05-23T05:31:31.795Z,99.90
2019-05-23T05:34:00.891Z,99.90
2019-05-23T05:36:29.731Z,99.90
2019-05-23T05:38:58.661Z,99.90
2019-05-23T05:41:27.765Z,99.90
2019-05-23T05:43:56.705Z,99.90
2019-05-23T05:46:25.564Z,99.90
2019-05-23T05:48:54.853Z,99.90
2019-05-23T05:51:23.718Z,99.90
2019-05-23T05:53:53.415Z,99.90
2019-05-23T05:56:22.414Z,99.90
2019-05-23T05:58:51.403Z,99.90
2019-05-23T06:01:33.405Z,99.90
2019-05-23T06:03:51.667Z,99.90
2019-05-23T06:06:22.108Z,99.90
2019-05-23T06:08:53.710Z,99.90
2019-05-23T06:11:22.914Z,99.90
2019-05-23T06:13:52.145Z,99.90
2019-05-23T06:16:21.296Z,99.90
2019-05-23T06:18:50.152Z,99.90
2019-05-23T06:21:26.546Z,99.90
2019-05-23T06:23:56.120Z,99.90
2019-05-23T06:26:25.072Z,99.90
2019-05-23T06:28:54.127Z,99.90
2019-05-23T06:31:23.316Z,99.90
2019-05-23T06:33:52.815Z,99.90
2019-05-23T06:36:22.066Z,99.90
2019-05-23T06:38:51.210Z,99.90
2019-05-23T06:41:21.795Z,99.90
2019-05-23T06:43:51.330Z,99.90
2019-05-23T06:46:20.399Z,99.90
2019-05-23T06:48:49.294Z,99.90
2019-05-23T06:51:18.438Z,99.90
2019-05-23T06:53:47.443Z,99.90
2019-05-23T06:56:16.683Z,99.90
2019-05-23T06:58:45.581Z,99.90
2019-05-23T07:01:15.102Z,99.90
2019-05-23T07:03:44.296Z,99.90
2019-05-23T07:06:15.759Z,99.90
2019-05-23T07:08:44.978Z,99.90
2019-05-23T07:11:15.246Z,99.90
2019-05-23T07:13:44.212Z,99.90
2019-05-23T07:16:13.255Z,99.90
2019-05-23T07:18:43.823Z,99.90
2019-05-23T07:21:13.600Z,99.90
2019-05-23T07:23:42.948Z,99.90
2019-05-23T07:26:13.424Z,99.90
2019-05-23T07:28:42.790Z,99.90
2019-05-23T07:31:12.178Z,99.80
2019-05-23T07:33:59.902Z,99.90
2019-05-23T07:36:12.214Z,99.90
2019-05-23T07:38:41.193Z,99.90
2019-05-23T07:41:10.697Z,99.90
2019-05-23T07:43:40.210Z,99.90
2019-05-23T07:46:09.429Z,99.90
2019-05-23T07:48:38.962Z,99.90
2019-05-23T07:51:08.143Z,99.90
2019-05-23T07:53:51.367Z,99.90
2019-05-23T07:56:21.983Z,99.90
2019-05-23T07:58:51.097Z,99.90
2019-05-23T08:01:21.862Z,99.90
2019-05-23T08:03:51.986Z,99.90
2019-05-23T08:06:21.600Z,99.90
2019-05-23T08:08:51.793Z,99.90
2019-05-23T08:11:21.392Z,99.90
2019-05-23T08:13:50.412Z,99.90
2019-05-23T08:16:19.350Z,99.90
2019-05-23T08:18:48.325Z,99.90
2019-05-23T08:21:17.908Z,99.90
2019-05-23T08:23:46.836Z,99.90
2019-05-23T08:26:17.687Z,99.90
2019-05-23T08:29:21.830Z,99.90
2019-05-23T08:31:17.561Z,99.90
2019-05-23T08:33:46.799Z,99.60
2019-05-23T08:36:15.710Z,99.70
2019-05-23T08:38:44.971Z,99.60
2019-05-23T08:41:13.972Z,99.50
2019-05-23T08:43:42.998Z,99.10
2019-05-23T08:46:12.678Z,99.60
2019-05-23T08:48:41.676Z,99.90
2019-05-23T08:51:11.002Z,99.90
2019-05-23T08:53:40.196Z,99.90
2019-05-23T08:56:18.446Z,99.90
2019-05-23T08:58:39.914Z,99.90
2019-05-23T09:01:10.414Z,99.90
2019-05-23T09:03:39.262Z,99.90
2019-05-23T09:06:08.996Z,99.90
2019-05-23T09:08:38.814Z,99.90
2019-05-23T09:11:08.366Z,99.90
2019-05-23T09:13:38.032Z,99.90
2019-05-23T09:16:07.002Z,99.90
2019-05-23T09:18:35.901Z,99.90
2019-05-23T09:21:05.728Z,99.90
2019-05-23T09:23:34.569Z,99.90
2019-05-23T09:26:03.691Z,99.90
2019-05-23T09:28:33.301Z,99.90
2019-05-23T09:31:03.473Z,99.90
2019-05-23T09:33:32.364Z,99.90
2019-05-23T09:36:01.525Z,99.90
2019-05-23T09:38:30.484Z,99.90
2019-05-23T09:40:59.337Z,99.90
2019-05-23T09:43:28.420Z,99.90
2019-05-23T09:45:57.295Z,99.90
2019-05-23T09:48:26.144Z,99.90
2019-05-23T09:50:55.331Z,99.90
2019-05-23T09:53:24.406Z,99.90
2019-05-23T09:55:55.754Z,99.90
2019-05-23T09:58:24.519Z,99.90
2019-05-23T10:00:53.411Z,99.90
2019-05-23T10:03:22.710Z,99.90
2019-05-23T10:05:52.912Z,99.90
2019-05-23T10:08:21.803Z,99.90
2019-05-23T10:10:50.767Z,99.90
2019-05-23T10:13:36.064Z,99.90
2019-05-23T10:15:55.865Z,99.90
2019-05-23T10:18:24.956Z,99.90
2019-05-23T10:20:54.071Z,99.90
2019-05-23T10:23:23.433Z,99.90
2019-05-23T10:25:52.425Z,99.90
2019-05-23T10:28:21.310Z,99.40
2019-05-23T10:30:50.580Z,99.60
2019-05-23T10:33:19.746Z,98.30
2019-05-23T10:35:59.891Z,98.80
2019-05-23T10:38:19.590Z,99.00
2019-05-23T10:40:48.471Z,97.00
2019-05-23T10:43:17.430Z,97.90
2019-05-23T10:45:46.358Z,97.40
2019-05-23T10:48:16.022Z,97.50
2019-05-23T10:50:45.558Z,97.30
2019-05-23T10:53:16.464Z,97.50
2019-05-23T10:55:45.486Z,97.10
2019-05-23T10:58:15.708Z,97.40
2019-05-23T11:00:44.962Z,96.70
2019-05-23T11:03:13.968Z,95.90
2019-05-23T11:05:43.292Z,95.60
2019-05-23T11:08:13.320Z,96.10
2019-05-23T11:10:42.927Z,96.50
2019-05-23T11:13:11.783Z,96.30
2019-05-23T11:15:41.437Z,95.50
2019-05-23T11:18:11.124Z,95.50
2019-05-23T11:20:40.119Z,95.60
2019-05-23T11:23:09.239Z,95.00
2019-05-23T11:25:40.030Z,94.30
2019-05-23T11:28:08.912Z,93.60
2019-05-23T11:30:42.591Z,93.60
2019-05-23T11:33:13.830Z,93.00
2019-05-23T11:35:44.247Z,93.30
2019-05-23T11:38:14.318Z,92.60
2019-05-23T11:40:43.522Z,93.40
2019-05-23T11:43:12.436Z,93.40
2019-05-23T11:45:46.473Z,92.40
2019-05-23T11:48:16.619Z,92.20
2019-05-23T11:50:45.724Z,91.40
2019-05-23T11:53:14.586Z,92.00
2019-05-23T11:55:43.651Z,91.80
2019-05-23T11:58:13.447Z,91.00
2019-05-23T12:00:55.977Z,91.10
2019-05-23T12:03:25.107Z,90.20
2019-05-23T12:05:54.188Z,87.50
2019-05-23T12:08:23.120Z,89.20
2019-05-23T12:10:51.980Z,87.30
2019-05-23T12:13:20.887Z,90.00
2019-05-23T12:15:49.840Z,84.70
2019-05-23T12:18:19.111Z,85.80
2019-05-23T12:20:47.983Z,86.00
2019-05-23T12:23:16.871Z,90.40
2019-05-23T12:25:46.613Z,90.50
2019-05-23T12:28:16.108Z,88.70
2019-05-23T12:30:45.161Z,88.00
2019-05-23T12:33:14.286Z,85.20
2019-05-23T12:35:43.218Z,85.60
2019-05-23T12:38:12.505Z,88.70
2019-05-23T12:40:41.324Z,89.80
2019-05-23T12:43:10.313Z,89.50
2019-05-23T12:45:39.213Z,88.40
2019-05-23T12:48:15.143Z,86.70
2019-05-23T12:50:45.583Z,87.90
2019-05-23T12:53:16.367Z,86.50
2019-05-23T12:55:45.368Z,87.40
2019-05-23T12:58:14.207Z,89.40
2019-05-23T13:00:45.128Z,88.70
2019-05-23T13:03:15.831Z,88.40
2019-05-23T13:05:45.350Z,89.20
2019-05-23T13:08:14.499Z,89.20
2019-05-23T13:10:43.342Z,89.00
2019-05-23T13:13:12.573Z,89.00
2019-05-23T13:15:41.397Z,90.20
2019-05-23T13:18:10.679Z,90.90
2019-05-23T13:20:40.086Z,91.40
2019-05-23T13:23:19.537Z,90.30
2019-05-23T13:25:40.214Z,89.60
2019-05-23T13:28:09.497Z,89.60
2019-05-23T13:30:39.297Z,90.20
2019-05-23T13:33:10.168Z,90.30
2019-05-23T13:35:38.891Z,90.60
2019-05-23T13:38:07.831Z,91.10
2019-05-23T13:40:36.780Z,90.80
2019-05-23T13:43:08.589Z,91.00
2019-05-23T13:45:37.478Z,91.40
2019-05-23T13:48:06.802Z,90.70
2019-05-23T13:50:36.155Z,91.10
2019-05-23T13:53:06.864Z,90.70
2019-05-23T13:55:37.975Z,91.20
2019-05-23T13:58:07.205Z,91.60
2019-05-23T14:00:36.743Z,90.90
2019-05-23T14:03:06.665Z,91.60
2019-05-23T14:05:35.626Z,91.70
2019-05-23T14:08:12.417Z,91.50
2019-05-23T14:10:35.577Z,92.20
2019-05-23T14:13:04.509Z,92.20
2019-05-23T14:15:35.077Z,92.40
2019-05-23T14:18:08.801Z,92.20
2019-05-23T14:20:38.358Z,93.10
2019-05-23T14:23:15.192Z,93.30
2019-05-23T14:25:45.926Z,93.60
2019-05-23T14:28:15.743Z,92.60
2019-05-23T14:31:02.386Z,93.30
2019-05-23T14:33:50.846Z,93.60
2019-05-23T14:36:32.361Z,94.20
2019-05-23T14:39:03.022Z,94.70
2019-05-23T14:41:45.937Z,94.70
2019-05-23T14:44:15.540Z,94.10
2019-05-23T14:46:49.050Z,94.40
2019-05-23T14:49:22.316Z,94.00
2019-05-23T14:52:09.227Z,93.40
2019-05-23T14:54:42.081Z,94.30
2019-05-23T14:57:11.617Z,93.60
2019-05-23T14:59:40.804Z,93.40
2019-05-23T15:02:11.430Z,93.90
2019-05-23T15:04:40.282Z,93.30
2019-05-23T15:07:09.275Z,93.90
2019-05-23T15:09:38.206Z,94.20
2019-05-23T15:12:07.436Z,94.90
2019-05-23T15:14:36.525Z,94.60
2019-05-23T15:17:06.215Z,95.00
2019-05-23T15:19:44.230Z,94.80
2019-05-23T15:22:06.238Z,94.30
2019-05-23T15:24:35.148Z,93.90
2019-05-23T15:27:04.291Z,94.10
2019-05-23T15:29:33.349Z,94.40
2019-05-23T15:32:03.385Z,94.30
2019-05-23T15:34:34.866Z,94.10
2019-05-23T15:37:03.236Z,94.60
2019-05-23T15:39:32.192Z,94.50
2019-05-23T15:42:01.074Z,94.60
2019-05-23T15:44:30.821Z,95.10
2019-05-23T15:47:00.259Z,95.00
2019-05-23T15:49:29.837Z,94.70
2019-05-23T15:52:07.302Z,94.50
2019-05-23T15:54:40.158Z,94.80
2019-05-23T15:57:27.295Z,94.60
2019-05-23T16:00:06.534Z,94.90
2019-05-23T16:02:46.032Z,94.70
2019-05-23T16:05:16.121Z,94.70
2019-05-23T16:07:46.103Z,94.80
2019-05-23T16:10:15.702Z,95.20
2019-05-23T16:12:44.783Z,94.20
2019-05-23T16:15:13.985Z,94.90
2019-05-23T16:17:45.023Z,95.30
2019-05-23T16:20:15.464Z,95.10
2019-05-23T16:22:44.723Z,95.00
2019-05-23T16:25:13.905Z,94.90
2019-05-23T16:27:43.788Z,94.90
2019-05-23T16:30:12.758Z,95.20
2019-05-23T16:32:41.671Z,95.00
2019-05-23T16:35:10.720Z,95.30
2019-05-23T16:37:39.564Z,95.50
2019-05-23T16:40:09.258Z,94.50
2019-05-23T16:42:38.372Z,95.00
2019-05-23T16:45:09.041Z,95.20
2019-05-23T16:47:38.127Z,95.70
2019-05-23T16:50:07.377Z,95.30
2019-05-23T16:52:36.750Z,95.50
2019-05-23T16:55:08.516Z,95.60
2019-05-23T16:57:39.427Z,95.20
2019-05-23T17:00:28.494Z,94.60
2019-05-23T17:03:01.660Z,94.70
2019-05-23T17:05:40.817Z,94.60
2019-05-23T17:08:27.911Z,94.90
2019-05-23T17:11:04.387Z,94.50
2019-05-23T17:13:43.787Z,94.90
2019-05-23T17:16:18.621Z,95.10
2019-05-23T17:18:49.091Z,95.20
2019-05-23T17:21:26.200Z,95.30
2019-05-23T17:23:56.681Z,95.00
2019-05-23T17:26:27.200Z,95.10
2019-05-23T17:28:57.633Z,95.20
2019-05-23T17:31:31.394Z,94.90
2019-05-23T17:34:00.421Z,95.30
2019-05-23T17:36:29.598Z,95.20
2019-05-23T17:38:58.845Z,95.40
2019-05-23T17:41:28.323Z,95.40
2019-05-23T17:43:57.185Z,95.30
2019-05-23T17:46:26.062Z,95.10
2019-05-23T17:48:55.057Z,95.30
2019-05-23T17:51:24.409Z,95.50
2019-05-23T17:53:53.275Z,95.50
2019-05-23T17:56:22.439Z,95.60
2019-05-23T17:58:51.856Z,95.70
2019-05-23T18:01:20.715Z,95.90
2019-05-23T18:03:49.948Z,95.80
2019-05-23T18:06:18.800Z,95.40
2019-05-23T18:08:47.683Z,95.50
2019-05-23T18:11:16.790Z,95.50
2019-05-23T18:13:45.824Z,95.60
2019-05-23T18:16:16.735Z,95.30
2019-05-23T18:18:46.029Z,96.00
2019-05-23T18:21:15.325Z,95.70
2019-05-23T18:23:44.949Z,96.10
2019-05-23T18:26:14.098Z,95.60
2019-05-23T18:28:43.279Z,95.60
2019-05-23T18:31:16.817Z,95.60
2019-05-23T18:33:46.378Z,95.80
2019-05-23T18:36:15.617Z,95.70
2019-05-23T18:38:44.971Z,95.60
2019-05-23T18:41:14.162Z,95.60
2019-05-23T18:43:43.738Z,96.10
2019-05-23T18:46:14.324Z,95.60
2019-05-23T18:48:43.259Z,95.50
2019-05-23T18:51:12.724Z,95.60
2019-05-23T18:53:41.612Z,95.80
2019-05-23T18:56:10.552Z,95.70
2019-05-23T18:58:39.836Z,95.90
2019-05-23T19:01:10.302Z,96.10
2019-05-23T19:03:39.916Z,96.10
2019-05-23T19:06:09.041Z,96.10
2019-05-23T19:08:37.946Z,96.80
2019-05-23T19:11:20.328Z,96.80
2019-05-23T19:13:39.794Z,96.80
2019-05-23T19:16:09.194Z,96.90
2019-05-23T19:18:39.040Z,97.40
2019-05-23T19:21:08.386Z,97.80
2019-05-23T19:23:37.758Z,98.10
2019-05-23T19:26:07.830Z,98.20
2019-05-23T19:28:36.969Z,98.20
2019-05-23T19:31:06.481Z,98.30
2019-05-23T19:33:35.839Z,98.30
2019-05-23T19:36:05.811Z,98.70
2019-05-23T19:38:34.746Z,98.60
2019-05-23T19:41:04.300Z,98.80
2019-05-23T19:43:33.490Z,98.70
2019-05-23T19:46:02.486Z,98.70
2019-05-23T19:48:31.377Z,98.80
2019-05-23T19:51:00.342Z,99.20
2019-05-23T19:53:29.805Z,99.20
2019-05-23T19:55:59.130Z,99.50
2019-05-23T19:58:27.973Z,99.70
2019-05-23T20:00:57.324Z,99.30
2019-05-23T20:03:26.506Z,99.70
2019-05-23T20:05:56.642Z,99.70
2019-05-23T20:08:25.508Z,99.40
2019-05-23T20:10:55.051Z,99.50
2019-05-23T20:13:24.085Z,99.50
2019-05-23T20:15:53.489Z,99.50
2019-05-23T20:18:22.423Z,99.80
2019-05-23T20:20:51.908Z,99.80
2019-05-23T20:23:20.800Z,99.90
2019-05-23T20:25:49.751Z,99.80
2019-05-23T20:28:18.576Z,99.90
2019-05-23T20:30:52.343Z,99.90
2019-05-23T20:33:21.353Z,99.90
2019-05-23T20:35:51.704Z,99.90
2019-05-23T20:38:20.999Z,99.90
2019-05-23T20:40:49.890Z,99.90
2019-05-23T20:43:18.913Z,99.90
2019-05-23T20:45:47.787Z,99.90
2019-05-23T20:48:16.778Z,99.90
2019-05-23T20:50:45.842Z,99.90
2019-05-23T20:53:15.085Z,99.90
2019-05-23T20:55:44.108Z,99.90
2019-05-23T20:58:13.248Z,99.90
2019-05-23T21:00:46.774Z,99.90
2019-05-23T21:03:15.626Z,99.90
2019-05-23T21:05:44.470Z,99.90
2019-05-23T21:08:13.536Z,99.90
2019-05-23T21:10:45.661Z,99.90
2019-05-23T21:13:14.504Z,99.90
2019-05-23T21:15:43.463Z,99.90
2019-05-23T21:18:13.174Z,99.90
2019-05-23T21:20:42.230Z,99.90
2019-05-23T21:23:11.795Z,99.90
2019-05-23T21:25:42.196Z,99.90
2019-05-23T21:28:11.210Z,99.90
2019-05-23T21:30:40.100Z,99.90
2019-05-23T21:33:09.333Z,99.90
2019-05-23T21:35:38.268Z,99.90
2019-05-23T21:38:07.573Z,99.90
2019-05-23T21:40:40.379Z,99.90
2019-05-23T21:43:09.326Z,99.90
2019-05-23T21:45:38.647Z,99.90
2019-05-23T21:48:07.650Z,99.90
2019-05-23T21:50:36.879Z,99.90
2019-05-23T21:53:05.868Z,99.90
2019-05-23T21:55:44.647Z,99.90
2019-05-23T21:58:15.014Z,99.90
2019-05-23T22:01:06.450Z,99.90
2019-05-23T22:03:59.696Z,99.90
2019-05-23T22:06:45.662Z,99.90
2019-05-23T22:09:16.109Z,99.90
2019-05-23T22:11:45.285Z,99.90
2019-05-23T22:14:14.470Z,99.90
2019-05-23T22:16:43.384Z,99.90
2019-05-23T22:19:15.306Z,99.90
2019-05-23T22:21:44.498Z,99.90
2019-05-23T22:24:14.594Z,99.90
2019-05-23T22:26:43.886Z,99.90
2019-05-23T22:29:13.954Z,99.90
2019-05-23T22:31:42.838Z,99.90
2019-05-23T22:34:29.698Z,99.90
2019-05-23T22:36:59.246Z,99.90
2019-05-23T22:39:28.220Z,99.90
2019-05-23T22:41:58.110Z,99.90
2019-05-23T22:44:27.273Z,99.90
2019-05-23T22:46:56.470Z,99.90
2019-05-23T22:49:25.436Z,99.90
2019-05-23T22:51:54.332Z,99.90
2019-05-23T22:54:23.164Z,99.90
2019-05-23T22:56:52.138Z,99.90
2019-05-23T22:59:20.953Z,99.90
2019-05-23T23:01:49.880Z,99.90
2019-05-23T23:04:19.302Z,99.90
2019-05-23T23:06:48.283Z,99.90
2019-05-23T23:09:17.290Z,99.90
2019-05-23T23:11:46.239Z,99.90
2019-05-23T23:14:15.069Z,99.90
2019-05-23T23:16:43.989Z,99.90
2019-05-23T23:19:13.203Z,99.90
2019-05-23T23:21:42.894Z,99.90
2019-05-23T23:24:11.745Z,99.90
2019-05-23T23:26:40.569Z,99.90
2019-05-23T23:29:10.323Z,99.90
2019-05-23T23:31:40.220Z,99.90
2019-05-23T23:34:09.281Z,99.90
2019-05-23T23:36:38.112Z,99.90
2019-05-23T23:39:07.640Z,99.90
2019-05-23T23:41:36.487Z,99.90
2019-05-23T23:44:06.656Z,99.90
2019-05-23T23:46:53.280Z,99.90
2019-05-23T23:49:39.753Z,99.90
2019-05-23T23:52:26.091Z,99.90
2019-05-23T23:55:13.016Z,99.90
2019-05-23T23:57:59.772Z,99.90
